Terminal Aerodrome Forecast
Issued by NWS

Home | Current Version | Previous Version | Text Only | Print | Product List | Glossary On
Versions: 1 2 3 4 5 6 7 8 9 10 11 12 13 14 15 16 17 18 19 20 21 22
000
FTUS41 KPBZ 282300
TAFZZV
TAF
KZZV 282338Z 2900/2924 VRB03KT P6SM SCT100
     FM291100 15007KT P6SM BKN080 WS020/21040KT
     FM291500 19010G16KT 5SM -SHRA OVC030
     FM291800 20010G16KT 3SM -SHRA BR OVC008=

USA.gov is the U.S. government's official web portal to all federal, state and local government web resources and services.